createdAt,value
2018-06-03T00:01:20.146Z,19.73
2018-06-03T00:02:20.726Z,19.74
2018-06-03T00:04:05.820Z,19.73
2018-06-03T00:05:06.400Z,19.76
2018-06-03T00:06:51.542Z,19.76
2018-06-03T00:07:52.121Z,19.77
2018-06-03T00:09:37.263Z,19.82
2018-06-03T00:10:37.842Z,19.79
2018-06-03T00:12:22.935Z,19.74
2018-06-03T00:13:23.515Z,19.71
2018-06-03T00:15:08.609Z,19.77
2018-06-03T00:16:09.190Z,19.73
2018-06-03T00:17:54.332Z,19.85
2018-06-03T00:18:54.913Z,19.79
2018-06-03T00:20:40.006Z,19.79
2018-06-03T00:21:40.585Z,19.76
2018-06-03T00:23:25.680Z,19.73
2018-06-03T00:24:26.265Z,19.74
2018-06-03T00:26:11.404Z,19.81
2018-06-03T00:27:11.984Z,19.74
2018-06-03T00:28:57.126Z,19.71
2018-06-03T00:29:57.706Z,19.74
2018-06-03T00:31:42.800Z,19.73
2018-06-03T00:32:43.380Z,19.67
2018-06-03T00:34:28.473Z,19.74
2018-06-03T00:35:29.055Z,19.73
2018-06-03T00:37:14.196Z,19.73
2018-06-03T00:38:14.775Z,19.73
2018-06-03T00:39:59.869Z,19.76
2018-06-03T00:41:00.448Z,19.71
2018-06-03T00:42:45.541Z,19.69
2018-06-03T00:43:46.121Z,19.73
2018-06-03T00:45:31.265Z,19.74
2018-06-03T00:46:31.893Z,19.74
2018-06-03T00:48:16.986Z,19.76
2018-06-03T00:49:17.565Z,19.73
2018-06-03T00:51:02.658Z,19.79
2018-06-03T00:52:03.241Z,19.77
2018-06-03T00:53:48.336Z,19.76
2018-06-03T00:54:48.967Z,19.76
2018-06-03T00:56:34.054Z,19.77
2018-06-03T00:57:34.634Z,19.76
2018-06-03T00:59:19.728Z,19.77
2018-06-03T01:00:20.308Z,19.66
2018-06-03T01:02:05.402Z,19.70
2018-06-03T01:03:05.984Z,19.71
2018-06-03T01:04:51.125Z,19.74
2018-06-03T01:05:51.704Z,19.76
2018-06-03T01:07:36.845Z,19.73
2018-06-03T01:08:37.425Z,19.73
2018-06-03T01:10:22.518Z,19.76
2018-06-03T01:11:23.097Z,19.71
2018-06-03T01:13:08.190Z,19.67
2018-06-03T01:14:08.770Z,19.71
2018-06-03T01:15:53.912Z,19.64
2018-06-03T01:16:54.492Z,19.76
2018-06-03T01:18:39.585Z,19.70
2018-06-03T01:19:40.166Z,19.74
2018-06-03T01:21:25.258Z,19.73
2018-06-03T01:22:25.839Z,19.70
2018-06-03T01:24:10.982Z,19.71
2018-06-03T01:25:11.613Z,19.62
2018-06-03T01:26:56.705Z,19.71
2018-06-03T01:27:57.286Z,19.66
2018-06-03T01:29:42.380Z,19.63
2018-06-03T01:30:43.005Z,19.59
2018-06-03T01:32:28.098Z,19.67
2018-06-03T01:33:28.674Z,19.64
2018-06-03T01:35:13.770Z,19.62
2018-06-03T01:36:14.441Z,19.64
2018-06-03T01:37:59.531Z,19.73
2018-06-03T01:39:00.111Z,19.66
2018-06-03T01:40:45.254Z,19.64
2018-06-03T01:41:45.834Z,19.70
2018-06-03T01:43:30.925Z,19.73
2018-06-03T01:44:31.506Z,19.73
2018-06-03T01:46:16.600Z,19.64
2018-06-03T01:47:17.180Z,19.76
2018-06-03T01:49:02.273Z,19.66
2018-06-03T01:50:02.904Z,19.76
2018-06-03T01:51:47.996Z,19.73
2018-06-03T01:52:48.574Z,19.71
2018-06-03T01:54:33.715Z,19.69
2018-06-03T01:55:34.294Z,19.64
2018-06-03T01:57:19.387Z,19.66
2018-06-03T01:58:20.016Z,19.66
2018-06-03T02:00:05.116Z,19.76
2018-06-03T02:01:05.687Z,19.71
2018-06-03T02:02:50.780Z,19.70
2018-06-03T02:03:51.361Z,19.64
2018-06-03T02:05:36.497Z,19.67
2018-06-03T02:06:37.081Z,19.64
2018-06-03T02:08:22.220Z,19.67
2018-06-03T02:09:22.799Z,19.66
2018-06-03T02:11:07.941Z,19.66
2018-06-03T02:12:08.525Z,19.63
2018-06-03T02:13:53.624Z,19.64
2018-06-03T02:14:54.195Z,19.63
2018-06-03T02:16:39.287Z,19.64
2018-06-03T02:17:39.867Z,19.63
2018-06-03T02:19:25.009Z,19.69
2018-06-03T02:20:25.590Z,19.62
2018-06-03T02:22:10.683Z,19.62
2018-06-03T02:23:11.263Z,19.56
2018-06-03T02:24:56.356Z,19.62
2018-06-03T02:25:56.985Z,19.54
2018-06-03T02:27:42.076Z,19.54
2018-06-03T02:28:42.659Z,19.64
2018-06-03T02:30:27.805Z,19.62
2018-06-03T02:31:28.379Z,19.64
2018-06-03T02:33:13.471Z,19.66
2018-06-03T02:34:14.051Z,19.59
2018-06-03T02:35:59.194Z,19.62
2018-06-03T02:36:59.773Z,19.55
2018-06-03T02:38:44.865Z,19.58
2018-06-03T02:39:45.445Z,19.58
2018-06-03T02:41:30.579Z,19.62
2018-06-03T02:42:31.360Z,19.59
2018-06-03T02:44:16.452Z,19.51
2018-06-03T02:45:17.075Z,19.56
2018-06-03T02:47:02.167Z,19.62
2018-06-03T02:48:02.797Z,19.55
2018-06-03T02:49:47.888Z,19.58
2018-06-03T02:50:48.468Z,19.52
2018-06-03T02:52:33.567Z,19.56
2018-06-03T02:53:34.197Z,19.59
2018-06-03T02:55:19.289Z,19.58
2018-06-03T02:56:19.873Z,19.55
2018-06-03T02:58:05.007Z,19.55
2018-06-03T02:59:05.590Z,19.58
2018-06-03T03:00:50.727Z,19.59
2018-06-03T03:01:51.310Z,19.54
2018-06-03T03:03:36.401Z,19.56
2018-06-03T03:04:36.981Z,19.51
2018-06-03T03:06:22.082Z,19.56
2018-06-03T03:07:22.653Z,19.56
2018-06-03T03:09:07.797Z,19.52
2018-06-03T03:10:08.376Z,19.44
2018-06-03T03:11:53.473Z,19.51
2018-06-03T03:12:54.047Z,19.44
2018-06-03T03:14:39.140Z,19.52
2018-06-03T03:15:39.770Z,19.49
2018-06-03T03:17:24.861Z,19.49
2018-06-03T03:18:25.441Z,19.49
2018-06-03T03:20:10.584Z,19.49
2018-06-03T03:21:11.166Z,19.45
2018-06-03T03:22:56.254Z,19.44
2018-06-03T03:23:56.839Z,19.49
2018-06-03T03:25:41.980Z,19.45
2018-06-03T03:26:42.556Z,19.48
2018-06-03T03:28:27.650Z,19.49
2018-06-03T03:29:28.231Z,19.48
2018-06-03T03:31:13.323Z,19.48
2018-06-03T03:32:13.903Z,19.48
2018-06-03T03:33:58.996Z,19.51
2018-06-03T03:34:59.575Z,19.48
2018-06-03T03:36:44.719Z,19.51
2018-06-03T03:37:45.298Z,19.55
2018-06-03T03:39:30.389Z,19.44
2018-06-03T03:40:30.969Z,19.45
2018-06-03T03:42:16.068Z,19.45
2018-06-03T03:43:16.692Z,19.47
2018-06-03T03:45:01.783Z,19.49
2018-06-03T03:46:02.364Z,19.48
2018-06-03T03:47:47.504Z,19.47
2018-06-03T03:48:48.084Z,19.48
2018-06-03T03:50:33.177Z,19.48
2018-06-03T03:51:33.766Z,19.47
2018-06-03T03:53:18.855Z,19.49
2018-06-03T03:54:19.441Z,19.47
2018-06-03T03:56:04.576Z,19.44
2018-06-03T03:57:05.159Z,19.40
2018-06-03T03:58:50.292Z,19.40
2018-06-03T03:59:50.873Z,19.41
2018-06-03T04:01:36.016Z,19.47
2018-06-03T04:02:36.595Z,19.41
2018-06-03T04:04:21.687Z,19.41
2018-06-03T04:05:22.317Z,19.45
2018-06-03T04:07:07.449Z,19.41
2018-06-03T04:08:08.030Z,19.39
2018-06-03T04:09:53.125Z,19.41
2018-06-03T04:10:53.702Z,19.31
2018-06-03T04:12:38.794Z,19.40
2018-06-03T04:13:39.424Z,19.26
2018-06-03T04:15:24.515Z,19.36
2018-06-03T04:16:25.095Z,19.26
2018-06-03T04:18:10.237Z,19.34
2018-06-03T04:19:10.817Z,19.27
2018-06-03T04:20:56.059Z,19.29
2018-06-03T04:21:56.640Z,19.31
2018-06-03T04:23:41.784Z,19.37
2018-06-03T04:24:42.368Z,19.26
2018-06-03T04:26:27.496Z,19.30
2018-06-03T04:27:28.076Z,19.22
2018-06-03T04:29:13.169Z,19.33
2018-06-03T04:30:13.749Z,19.27
2018-06-03T04:31:58.842Z,19.31
2018-06-03T04:32:59.422Z,19.29
2018-06-03T04:34:44.515Z,19.26
2018-06-03T04:35:45.145Z,19.19
2018-06-03T04:37:30.286Z,19.33
2018-06-03T04:38:30.865Z,19.33
2018-06-03T04:40:16.009Z,19.19
2018-06-03T04:41:16.634Z,19.31
2018-06-03T04:43:01.770Z,19.24
2018-06-03T04:44:02.350Z,19.29
2018-06-03T04:45:47.441Z,19.24
2018-06-03T04:46:48.021Z,19.26
2018-06-03T04:48:33.119Z,19.26
2018-06-03T04:49:33.694Z,19.36
2018-06-03T04:51:18.787Z,19.24
2018-06-03T04:52:19.368Z,19.26
2018-06-03T04:54:04.462Z,19.30
2018-06-03T04:55:05.092Z,19.24
2018-06-03T04:56:50.172Z,19.26
2018-06-03T04:57:50.801Z,19.30
2018-06-03T04:59:35.891Z,19.18
2018-06-03T05:00:36.521Z,19.19
2018-06-03T05:02:21.612Z,19.24
2018-06-03T05:03:22.242Z,19.21
2018-06-03T05:05:07.332Z,19.24
2018-06-03T05:06:07.912Z,19.14
2018-06-03T05:07:53.006Z,19.22
2018-06-03T05:08:53.592Z,19.21
2018-06-03T05:10:38.679Z,19.19
2018-06-03T05:11:39.258Z,19.21
2018-06-03T05:13:24.351Z,19.16
2018-06-03T05:14:24.931Z,19.21
2018-06-03T05:16:10.026Z,19.27
2018-06-03T05:17:10.606Z,19.19
2018-06-03T05:18:55.748Z,19.29
2018-06-03T05:19:56.377Z,19.26
2018-06-03T05:21:41.519Z,19.21
2018-06-03T05:22:42.098Z,19.21
2018-06-03T05:24:27.195Z,19.31
2018-06-03T05:25:27.815Z,19.19
2018-06-03T05:27:12.907Z,19.22
2018-06-03T05:28:13.495Z,19.18
2018-06-03T05:29:58.581Z,19.21
2018-06-03T05:30:59.261Z,19.24
2018-06-03T05:32:44.554Z,19.29
2018-06-03T05:33:45.135Z,19.15
2018-06-03T05:35:30.327Z,19.24
2018-06-03T05:36:30.907Z,19.21
2018-06-03T05:38:16.001Z,19.29
2018-06-03T05:39:16.580Z,19.24
2018-06-03T05:41:01.673Z,19.22
2018-06-03T05:42:02.253Z,19.19
2018-06-03T05:43:47.348Z,19.24
2018-06-03T05:44:47.970Z,19.18
2018-06-03T05:46:33.064Z,19.19
2018-06-03T05:47:33.644Z,19.14
2018-06-03T05:49:18.737Z,19.14
2018-06-03T05:50:19.368Z,19.16
2018-06-03T05:52:04.561Z,19.08
2018-06-03T05:53:05.140Z,19.11
2018-06-03T05:54:50.231Z,19.14
2018-06-03T05:55:50.819Z,19.18
2018-06-03T05:57:35.904Z,19.12
2018-06-03T05:58:36.483Z,19.11
2018-06-03T06:00:21.577Z,19.11
2018-06-03T06:01:22.157Z,19.08
2018-06-03T06:03:07.250Z,19.11
2018-06-03T06:04:07.830Z,18.99
2018-06-03T06:05:52.923Z,19.09
2018-06-03T06:06:53.503Z,19.04
2018-06-03T06:08:38.597Z,19.07
2018-06-03T06:09:39.227Z,19.00
2018-06-03T06:11:24.418Z,19.07
2018-06-03T06:12:24.997Z,18.99
2018-06-03T06:14:10.088Z,19.00
2018-06-03T06:15:10.671Z,19.11
2018-06-03T06:16:55.804Z,19.02
2018-06-03T06:17:56.384Z,18.98
2018-06-03T06:19:41.476Z,19.04
2018-06-03T06:20:42.093Z,18.99
2018-06-03T06:22:27.149Z,18.98
2018-06-03T06:23:27.729Z,18.98
2018-06-03T06:25:12.822Z,18.99
2018-06-03T06:26:13.452Z,18.92
2018-06-03T06:27:58.592Z,18.92
2018-06-03T06:28:59.221Z,18.88
2018-06-03T06:30:44.309Z,18.90
2018-06-03T06:31:44.902Z,18.84
2018-06-03T06:33:29.983Z,18.90
2018-06-03T06:34:30.563Z,18.90
2018-06-03T06:36:15.656Z,18.89
2018-06-03T06:37:16.236Z,19.00
2018-06-03T06:39:01.329Z,18.95
2018-06-03T06:40:01.910Z,18.98
2018-06-03T06:41:47.003Z,18.98
2018-06-03T06:42:47.582Z,18.90
2018-06-03T06:44:32.727Z,18.98
2018-06-03T06:45:33.305Z,18.99
2018-06-03T06:47:18.596Z,18.84
2018-06-03T06:48:19.175Z,18.98
2018-06-03T06:50:04.328Z,18.88
2018-06-03T06:51:04.845Z,18.90
2018-06-03T06:52:49.981Z,18.95
2018-06-03T06:53:50.561Z,18.90
2018-06-03T06:55:35.655Z,18.89
2018-06-03T06:56:36.234Z,18.83
2018-06-03T06:58:21.328Z,18.90
2018-06-03T06:59:21.910Z,18.86
2018-06-03T07:01:07.001Z,18.90
2018-06-03T07:02:07.630Z,18.88
2018-06-03T07:03:52.872Z,18.88
2018-06-03T07:04:53.452Z,18.84
2018-06-03T07:06:38.600Z,18.84
2018-06-03T07:07:39.229Z,18.92
2018-06-03T07:09:24.316Z,18.93
2018-06-03T07:10:24.895Z,18.90
2018-06-03T07:12:09.989Z,18.90
2018-06-03T07:13:10.630Z,18.90
2018-06-03T07:14:55.663Z,18.90
2018-06-03T07:15:56.242Z,18.93
2018-06-03T07:17:41.335Z,18.88
2018-06-03T07:18:41.915Z,18.93
2018-06-03T07:20:27.008Z,18.93
2018-06-03T07:21:27.638Z,18.83
2018-06-03T07:23:12.780Z,18.96
2018-06-03T07:24:13.457Z,18.90
2018-06-03T07:25:58.604Z,18.88
2018-06-03T07:26:59.180Z,18.96
2018-06-03T07:28:44.323Z,18.92
2018-06-03T07:29:44.906Z,18.96
2018-06-03T07:31:29.996Z,18.84
2018-06-03T07:32:30.576Z,18.98
2018-06-03T07:34:15.669Z,18.90
2018-06-03T07:35:16.248Z,18.98
2018-06-03T07:37:01.342Z,18.98
2018-06-03T07:38:01.993Z,18.98
2018-06-03T07:39:47.105Z,19.00
2018-06-03T07:40:47.690Z,19.02
2018-06-03T07:42:32.778Z,18.98
2018-06-03T07:43:33.613Z,19.04
2018-06-03T07:45:18.741Z,19.00
2018-06-03T07:46:19.318Z,19.08
2018-06-03T07:48:04.410Z,18.98
2018-06-03T07:49:04.990Z,19.04
2018-06-03T07:50:50.086Z,19.04
2018-06-03T07:51:50.706Z,19.00
2018-06-03T07:53:35.799Z,19.02
2018-06-03T07:54:36.379Z,19.02
2018-06-03T07:56:21.524Z,19.04
2018-06-03T07:57:22.107Z,18.99
2018-06-03T07:59:07.188Z,19.12
2018-06-03T08:00:07.767Z,19.04
2018-06-03T08:01:52.860Z,19.08
2018-06-03T08:02:53.440Z,19.09
2018-06-03T08:04:38.632Z,19.02
2018-06-03T08:05:39.211Z,19.09
2018-06-03T08:07:24.302Z,19.09
2018-06-03T08:08:24.882Z,19.02
2018-06-03T08:10:09.975Z,19.16
2018-06-03T08:11:10.555Z,19.04
2018-06-03T08:12:55.698Z,19.14
2018-06-03T08:13:56.283Z,19.18
2018-06-03T08:15:41.378Z,19.19
2018-06-03T08:16:41.957Z,19.27
2018-06-03T08:18:27.049Z,19.19
2018-06-03T08:19:27.634Z,19.30
2018-06-03T08:21:12.770Z,19.24
2018-06-03T08:22:13.354Z,19.18
2018-06-03T08:23:58.505Z,19.26
2018-06-03T08:24:59.085Z,19.18
2018-06-03T08:26:44.180Z,19.27
2018-06-03T08:27:44.764Z,19.36
2018-06-03T08:29:29.859Z,19.44
2018-06-03T08:30:30.444Z,19.45
2018-06-03T08:32:15.537Z,19.56
2018-06-03T08:33:16.121Z,19.56
2018-06-03T08:35:01.267Z,19.73
2018-06-03T08:36:01.899Z,19.76
2018-06-03T08:37:46.998Z,19.70
2018-06-03T08:38:47.632Z,19.77
2018-06-03T08:40:32.774Z,19.85
2018-06-03T08:41:33.358Z,19.79
2018-06-03T08:43:18.453Z,19.86
2018-06-03T08:44:19.036Z,19.89
2018-06-03T08:46:04.132Z,19.91
2018-06-03T08:47:04.716Z,19.95
2018-06-03T08:48:49.811Z,19.95
2018-06-03T08:49:50.400Z,20.00
2018-06-03T08:51:35.492Z,19.91
2018-06-03T08:52:36.078Z,20.07
2018-06-03T08:54:21.225Z,20.02
2018-06-03T08:55:21.811Z,20.13
2018-06-03T08:57:06.961Z,20.19
2018-06-03T08:58:07.584Z,20.07
2018-06-03T08:59:52.683Z,20.06
2018-06-03T09:00:53.316Z,20.16
2018-06-03T09:02:38.415Z,20.16
2018-06-03T09:03:39.011Z,20.14
2018-06-03T09:05:24.096Z,20.18
2018-06-03T09:06:24.732Z,20.18
2018-06-03T09:08:09.880Z,20.16
2018-06-03T09:09:10.465Z,20.13
2018-06-03T09:10:55.561Z,20.19
2018-06-03T09:11:56.146Z,20.26
2018-06-03T09:13:41.336Z,20.22
2018-06-03T09:14:41.923Z,20.28
2018-06-03T09:16:27.070Z,20.32
2018-06-03T09:17:27.705Z,20.28
2018-06-03T09:19:12.806Z,20.26
2018-06-03T09:20:13.392Z,20.29
2018-06-03T09:21:58.489Z,20.43
2018-06-03T09:22:59.076Z,20.44
2018-06-03T09:24:44.174Z,20.41
2018-06-03T09:25:44.764Z,20.44
2018-06-03T09:27:29.859Z,20.52
2018-06-03T09:28:30.445Z,20.62
2018-06-03T09:30:15.545Z,20.55
2018-06-03T09:31:16.130Z,20.69
2018-06-03T09:33:01.231Z,20.58
2018-06-03T09:34:01.866Z,20.63
2018-06-03T09:35:47.017Z,20.60
2018-06-03T09:36:47.601Z,20.70
2018-06-03T09:38:32.702Z,20.74
2018-06-03T09:39:33.289Z,20.74
2018-06-03T09:41:18.432Z,20.77
2018-06-03T09:42:19.017Z,20.78
2018-06-03T09:44:04.166Z,20.74
2018-06-03T09:45:04.753Z,20.80
2018-06-03T09:46:49.852Z,20.77
2018-06-03T09:47:50.438Z,20.81
2018-06-03T09:49:35.537Z,20.87
2018-06-03T09:50:36.124Z,20.78
2018-06-03T09:52:21.523Z,20.84
2018-06-03T09:53:22.171Z,20.84
2018-06-03T09:55:07.414Z,20.82
2018-06-03T09:56:08.089Z,20.74
2018-06-03T09:57:53.186Z,20.84
2018-06-03T09:58:53.773Z,20.80
2018-06-03T10:00:38.923Z,20.78
2018-06-03T10:01:39.509Z,20.78
2018-06-03T10:03:24.609Z,20.70
2018-06-03T10:04:25.196Z,20.70
2018-06-03T10:06:10.298Z,20.69
2018-06-03T10:07:10.922Z,20.67
2018-06-03T10:08:56.020Z,20.62
2018-06-03T10:09:56.606Z,20.62
2018-06-03T10:11:41.704Z,20.63
2018-06-03T10:12:42.291Z,20.67
2018-06-03T10:14:27.441Z,20.67
2018-06-03T10:15:28.026Z,20.66
2018-06-03T10:17:13.127Z,20.62
2018-06-03T10:18:13.713Z,20.63
2018-06-03T10:19:58.914Z,20.63
2018-06-03T10:20:59.498Z,20.62
2018-06-03T10:22:44.599Z,20.63
2018-06-03T10:23:45.186Z,20.62
2018-06-03T10:25:30.325Z,20.59
2018-06-03T10:26:30.910Z,20.60
2018-06-03T10:28:16.008Z,20.62
2018-06-03T10:29:16.593Z,20.60
2018-06-03T10:31:01.743Z,20.58
2018-06-03T10:32:02.328Z,20.62
2018-06-03T10:33:47.425Z,20.58
2018-06-03T10:34:48.011Z,20.63
2018-06-03T10:36:33.109Z,20.65
2018-06-03T10:37:33.745Z,20.55
2018-06-03T10:39:18.896Z,20.59
2018-06-03T10:40:19.481Z,20.58
2018-06-03T10:42:04.578Z,20.65
2018-06-03T10:43:05.164Z,20.60
2018-06-03T10:44:50.261Z,20.62
2018-06-03T10:45:50.849Z,20.63
2018-06-03T10:47:35.948Z,20.62
2018-06-03T10:48:36.584Z,20.75
2018-06-03T10:50:21.683Z,20.72
2018-06-03T10:51:22.271Z,20.72
2018-06-03T10:53:07.367Z,20.81
2018-06-03T10:54:07.953Z,20.77
2018-06-03T10:55:53.101Z,20.77
2018-06-03T10:56:53.685Z,20.82
2018-06-03T10:58:38.837Z,20.92
2018-06-03T10:59:39.418Z,20.85
2018-06-03T11:01:24.515Z,20.90
2018-06-03T11:02:25.144Z,20.87
2018-06-03T11:04:10.293Z,20.88
2018-06-03T11:05:10.879Z,20.87
2018-06-03T11:06:55.977Z,20.95
2018-06-03T11:07:56.564Z,20.97
2018-06-03T11:09:41.910Z,21.02
2018-06-03T11:10:42.499Z,20.99
2018-06-03T11:12:27.595Z,21.06
2018-06-03T11:13:28.181Z,20.97
2018-06-03T11:15:13.380Z,20.92
2018-06-03T11:16:13.964Z,21.09
2018-06-03T11:17:59.063Z,21.06
2018-06-03T11:18:59.649Z,21.05
2018-06-03T11:20:44.748Z,21.02
2018-06-03T11:21:45.385Z,20.99
2018-06-03T11:23:30.497Z,21.07
2018-06-03T11:24:31.118Z,21.09
2018-06-03T11:26:16.219Z,21.15
2018-06-03T11:27:16.809Z,21.09
2018-06-03T11:29:01.910Z,21.20
2018-06-03T11:30:02.499Z,21.20
2018-06-03T11:31:48.002Z,21.12
2018-06-03T11:32:48.590Z,21.24
2018-06-03T11:34:33.693Z,21.35
2018-06-03T11:35:34.283Z,21.29
2018-06-03T11:37:19.386Z,21.37
2018-06-03T11:38:19.977Z,21.42
2018-06-03T11:40:05.184Z,21.39
2018-06-03T11:41:05.774Z,21.42
2018-06-03T11:42:50.881Z,21.46
2018-06-03T11:43:51.470Z,21.54
2018-06-03T11:45:36.575Z,21.57
2018-06-03T11:46:37.216Z,21.64
2018-06-03T11:48:22.373Z,21.76
2018-06-03T11:49:22.963Z,21.76
2018-06-03T11:51:08.070Z,21.79
2018-06-03T11:52:08.711Z,21.85
2018-06-03T11:53:53.853Z,21.95
2018-06-03T11:54:54.411Z,21.82
2018-06-03T11:56:39.517Z,21.91
2018-06-03T11:57:40.210Z,21.96
2018-06-03T11:59:25.315Z,22.08
2018-06-03T12:00:25.908Z,22.15
2018-06-03T12:02:11.058Z,22.13
2018-06-03T12:03:11.605Z,22.14
2018-06-03T12:04:56.760Z,22.22
2018-06-03T12:05:57.354Z,22.26
2018-06-03T12:07:42.458Z,22.26
2018-06-03T12:08:43.051Z,22.35
2018-06-03T12:10:28.209Z,22.48
2018-06-03T12:11:28.840Z,22.53
2018-06-03T12:13:13.999Z,22.63
2018-06-03T12:15:30.090Z,22.68
2018-06-03T12:17:15.183Z,22.60
2018-06-03T12:18:15.821Z,22.60
2018-06-03T12:20:00.965Z,22.41
2018-06-03T12:21:01.610Z,22.53
2018-06-03T12:22:46.718Z,22.75
2018-06-03T12:23:47.310Z,22.76
2018-06-03T12:25:32.417Z,22.84
2018-06-03T12:26:33.012Z,22.98
2018-06-03T12:28:18.120Z,22.98
2018-06-03T12:29:18.710Z,23.12
2018-06-03T12:31:03.816Z,22.81
2018-06-03T12:32:04.409Z,22.85
2018-06-03T12:33:49.565Z,22.99
2018-06-03T12:34:50.160Z,22.80
2018-06-03T12:36:35.263Z,22.65
2018-06-03T12:37:35.906Z,22.85
2018-06-03T12:39:21.114Z,22.96
2018-06-03T12:40:21.704Z,23.05
2018-06-03T12:42:06.812Z,23.17
2018-06-03T12:43:07.405Z,23.21
2018-06-03T12:44:52.659Z,22.85
2018-06-03T12:45:53.249Z,22.80
2018-06-03T12:47:38.356Z,22.99
2018-06-03T12:48:38.947Z,23.24
2018-06-03T12:50:24.053Z,23.24
2018-06-03T12:51:24.648Z,23.39
2018-06-03T12:53:09.899Z,23.50
2018-06-03T12:54:10.492Z,23.56
2018-06-03T12:55:55.600Z,23.46
2018-06-03T12:56:56.192Z,23.41
2018-06-03T12:58:41.297Z,23.12
2018-06-03T12:59:41.890Z,23.39
2018-06-03T13:01:27.003Z,23.39
2018-06-03T13:02:27.637Z,23.27
2018-06-03T13:04:12.744Z,23.48
2018-06-03T13:05:13.337Z,23.50
2018-06-03T13:06:58.443Z,23.87
2018-06-03T13:07:59.041Z,23.95
2018-06-03T13:11:43.631Z,24.05
2018-06-03T13:12:44.178Z,24.06
2018-06-03T13:17:05.743Z,24.03
2018-06-03T13:20:37.251Z,24.18
2018-06-03T13:22:22.236Z,24.33
2018-06-03T13:23:22.889Z,24.50
2018-06-03T13:25:07.759Z,24.58
2018-06-03T13:26:08.347Z,24.78
2018-06-03T13:27:57.297Z,24.78
2018-06-03T13:28:57.893Z,24.93
2018-06-03T13:30:43.001Z,24.63
2018-06-03T13:31:43.595Z,24.43
2018-06-03T13:33:28.752Z,24.47
2018-06-03T13:34:29.344Z,24.53
2018-06-03T13:36:14.453Z,24.57
2018-06-03T13:37:15.046Z,24.24
2018-06-03T13:39:12.164Z,24.28
2018-06-03T13:40:12.755Z,24.30
2018-06-03T13:41:57.864Z,24.40
2018-06-03T13:42:58.458Z,24.66
2018-06-03T13:44:43.663Z,24.89
2018-06-03T13:45:44.255Z,24.93
2018-06-03T13:47:29.362Z,24.88
2018-06-03T13:48:29.954Z,24.53
2018-06-03T13:50:15.059Z,24.23
2018-06-03T13:51:15.650Z,23.93
2018-06-03T13:53:00.756Z,23.88
2018-06-03T13:54:01.347Z,23.77
2018-06-03T13:55:46.451Z,23.59
2018-06-03T13:56:47.092Z,23.62
2018-06-03T13:58:32.200Z,23.50
2018-06-03T13:59:32.795Z,23.46
2018-06-03T14:01:18.039Z,23.68
2018-06-03T14:02:18.628Z,23.77
2018-06-03T14:04:03.736Z,23.91
2018-06-03T14:05:04.326Z,23.92
2018-06-03T14:06:49.430Z,23.92
2018-06-03T14:07:50.022Z,23.95
2018-06-03T14:09:35.133Z,24.05
2018-06-03T14:10:35.723Z,23.99
2018-06-03T14:12:20.830Z,24.11
2018-06-03T14:13:21.422Z,24.21
2018-06-03T14:15:06.527Z,24.30
2018-06-03T14:16:07.119Z,24.24
2018-06-03T14:17:52.274Z,24.28
2018-06-03T14:18:52.914Z,24.23
2018-06-03T14:20:38.021Z,24.16
2018-06-03T14:21:38.615Z,24.11
2018-06-03T14:23:23.714Z,24.02
2018-06-03T14:24:24.348Z,23.96
2018-06-03T14:26:09.455Z,23.83
2018-06-03T14:27:10.192Z,23.88
2018-06-03T14:28:55.595Z,23.80
2018-06-03T14:29:56.186Z,23.80
2018-06-03T14:31:41.289Z,23.76
2018-06-03T14:32:41.879Z,23.71
2018-06-03T14:34:26.981Z,23.83
2018-06-03T14:35:27.620Z,23.87
2018-06-03T14:37:12.674Z,23.83
2018-06-03T14:38:13.314Z,23.93
2018-06-03T14:39:58.419Z,23.88
2018-06-03T14:40:59.009Z,23.88
2018-06-03T14:42:44.110Z,23.77
2018-06-03T14:43:44.699Z,23.84
2018-06-03T14:45:29.852Z,23.88
2018-06-03T14:46:30.444Z,23.96
2018-06-03T14:48:15.596Z,24.10
2018-06-03T14:49:16.187Z,24.05
2018-06-03T14:51:01.287Z,23.93
2018-06-03T14:52:01.876Z,24.02
2018-06-03T14:53:46.978Z,23.92
2018-06-03T14:54:47.570Z,24.03
2018-06-03T14:56:32.725Z,24.03
2018-06-03T14:57:33.310Z,24.02
2018-06-03T14:59:18.416Z,24.13
2018-06-03T15:00:19.007Z,24.10
2018-06-03T15:02:04.115Z,24.17
2018-06-03T15:03:04.756Z,24.16
2018-06-03T15:04:49.859Z,24.14
2018-06-03T15:05:50.449Z,24.10
2018-06-03T15:07:35.601Z,24.08
2018-06-03T15:08:36.189Z,24.05
2018-06-03T15:10:21.294Z,24.06
2018-06-03T15:11:21.883Z,24.03
2018-06-03T15:13:06.985Z,24.14
2018-06-03T15:14:07.574Z,24.10
2018-06-03T15:15:52.676Z,24.01
2018-06-03T15:16:53.265Z,23.96
2018-06-03T15:18:38.424Z,23.92
2018-06-03T15:19:39.020Z,23.88
2018-06-03T15:21:24.130Z,23.68
2018-06-03T15:22:24.725Z,23.71
2018-06-03T15:24:09.883Z,23.51
2018-06-03T15:25:10.477Z,23.47
2018-06-03T15:26:55.634Z,23.17
2018-06-03T15:27:56.223Z,23.02
2018-06-03T15:29:41.327Z,22.80
2018-06-03T15:30:41.916Z,22.75
2018-06-03T15:32:27.020Z,22.62
2018-06-03T15:33:27.609Z,22.50
2018-06-03T15:35:12.712Z,22.44
2018-06-03T15:36:13.305Z,22.43
2018-06-03T15:37:58.503Z,22.43
2018-06-03T15:38:59.090Z,22.32
2018-06-03T15:40:44.193Z,22.36
2018-06-03T15:41:44.782Z,22.35
2018-06-03T15:43:29.934Z,22.39
2018-06-03T15:44:30.523Z,22.51
2018-06-03T15:46:15.679Z,22.72
2018-06-03T15:47:16.266Z,22.83
2018-06-03T15:49:01.376Z,22.94
2018-06-03T15:50:01.960Z,23.08
2018-06-03T15:51:47.062Z,23.12
2018-06-03T15:52:47.650Z,23.17
2018-06-03T15:54:32.753Z,23.20
2018-06-03T15:55:33.346Z,23.23
2018-06-03T15:57:18.844Z,23.43
2018-06-03T15:58:19.438Z,23.51
2018-06-03T16:00:04.637Z,23.81
2018-06-03T16:01:05.219Z,23.86
2018-06-03T16:02:50.477Z,23.92
2018-06-03T16:03:51.111Z,23.99
2018-06-03T16:05:36.219Z,23.96
2018-06-03T16:06:36.804Z,24.03
2018-06-03T16:08:21.907Z,24.02
2018-06-03T16:09:22.497Z,24.02
2018-06-03T16:11:07.618Z,23.93
2018-06-03T16:12:08.188Z,23.99
2018-06-03T16:13:53.290Z,24.01
2018-06-03T16:14:53.929Z,23.93
2018-06-03T16:16:44.085Z,23.88
2018-06-03T16:17:44.675Z,23.87
2018-06-03T16:19:29.775Z,23.95
2018-06-03T16:20:30.365Z,23.80
2018-06-03T16:22:15.575Z,23.74
2018-06-03T16:23:16.155Z,23.77
2018-06-03T16:25:01.258Z,23.74
2018-06-03T16:26:01.861Z,23.76
2018-06-03T16:27:46.944Z,23.74
2018-06-03T16:28:47.530Z,23.69
2018-06-03T16:30:32.737Z,23.61
2018-06-03T16:31:33.260Z,23.63
2018-06-03T16:33:18.815Z,23.66
2018-06-03T16:34:19.349Z,23.61
2018-06-03T16:36:04.450Z,23.62
2018-06-03T16:37:05.038Z,23.58
2018-06-03T16:38:50.139Z,23.51
2018-06-03T16:39:50.775Z,23.51
2018-06-03T16:41:35.926Z,23.28
2018-06-03T16:42:36.514Z,23.24
2018-06-03T16:44:21.663Z,23.12
2018-06-03T16:45:22.253Z,23.15
2018-06-03T16:47:07.353Z,23.13
2018-06-03T16:48:07.939Z,23.13
2018-06-03T16:49:53.042Z,23.18
2018-06-03T16:50:53.629Z,23.17
2018-06-03T16:52:38.730Z,23.23
2018-06-03T16:53:39.322Z,23.21
2018-06-03T16:55:24.418Z,23.06
2018-06-03T16:56:25.005Z,23.09
2018-06-03T16:58:10.105Z,22.88
2018-06-03T16:59:10.742Z,22.76
2018-06-03T17:00:55.893Z,22.76
2018-06-03T17:01:56.480Z,22.73
2018-06-03T17:03:41.629Z,22.60
2018-06-03T17:04:42.213Z,22.57
2018-06-03T17:06:27.314Z,22.50
2018-06-03T17:07:27.901Z,22.53
2018-06-03T17:09:13.000Z,22.48
2018-06-03T17:10:13.588Z,22.43
2018-06-03T17:11:58.687Z,22.41
2018-06-03T17:12:59.273Z,22.33
2018-06-03T17:14:44.498Z,22.41
2018-06-03T17:15:45.008Z,22.41
2018-06-03T17:17:30.156Z,22.25
2018-06-03T17:18:30.743Z,22.26
2018-06-03T17:20:15.898Z,22.20
2018-06-03T17:21:16.512Z,22.15
2018-06-03T17:23:01.666Z,22.10
2018-06-03T17:24:02.245Z,22.13
2018-06-03T17:25:47.347Z,22.13
2018-06-03T17:26:47.933Z,22.11
2018-06-03T17:28:33.082Z,22.07
2018-06-03T17:29:33.667Z,22.04
2018-06-03T17:31:19.008Z,22.13
2018-06-03T17:32:19.594Z,22.06
2018-06-03T17:34:04.745Z,22.06
2018-06-03T17:35:05.329Z,22.04
2018-06-03T17:36:50.427Z,22.08
2018-06-03T17:37:51.013Z,22.00
2018-06-03T17:39:36.161Z,22.06
2018-06-03T17:40:36.746Z,22.04
2018-06-03T17:42:21.893Z,21.96
2018-06-03T17:43:22.496Z,21.96
2018-06-03T17:45:07.625Z,21.95
2018-06-03T17:46:08.208Z,21.96
2018-06-03T17:47:53.305Z,21.93
2018-06-03T17:48:53.941Z,21.99
2018-06-03T17:50:39.042Z,21.93
2018-06-03T17:51:39.679Z,21.89
2018-06-03T17:53:24.829Z,21.89
2018-06-03T17:54:25.417Z,21.89
2018-06-03T17:56:10.516Z,21.92